Flight Track Log - Related Links

Times and Time Zones

All times are in EDT time to prevent confusion due to time zone crossing. See the SWA2130 flight status page for this flight to view local times or setup timezone preferences in your user account.

Time Position Orientation Groundspeed Altitude Reporting Facility
EDT Latitude Longitude Course Direction KTS MPH feet Rate Location/Type
Mon 11:08:03 PM 31.7911 -106.2831 100° East 227 261 6,400  Level Albuquerque Center
Mon 11:08:51 PM 31.7625 -106.2317 123° Southeast 255 293 7,800 2,400 Climbing Albuquerque Center
Mon 11:09:53 PM 31.6981 -106.1708 141° Southeast 297 342 10,800 3,073 Climbing Albuquerque Center
Mon 11:10:54 PM 31.6356 -106.0861 131° Southeast 347 399 14,100 3,393 Climbing Albuquerque Center
Mon 11:11:55 PM 31.5708 -105.9953 130° Southeast 363 418 17,700 3,590 Climbing Albuquerque Center
Mon 11:12:56 PM 31.5114 -105.8914 124° Southeast 382 440 21,400 3,344 Climbing Albuquerque Center
Mon 11:13:57 PM 31.4644 -105.7783 116° Southeast 386 444 24,500 2,754 Climbing Albuquerque Center
Mon 11:14:58 PM 31.4433 -105.6486 101° East 404 465 27,000 2,341 Climbing Albuquerque Center
Mon 11:16:00 PM 31.4194 -105.5131 102° East 423 487 29,300 2,293 Climbing Albuquerque Center
Mon 11:17:01 PM 31.3903 -105.3439 101° East 440 506 31,700 2,311 Climbing Albuquerque Center
Mon 11:18:02 PM 31.3650 -105.1997 102° East 448 516 34,000 2,213 Climbing Albuquerque Center
Mon 11:19:03 PM 31.3403 -105.0586 102° East 444 511 36,200 1,623 Climbing Albuquerque Center
Mon 11:20:04 PM 31.3158 -104.9175 101° East 440 506 37,300 1,171 Climbing Albuquerque Center
Mon 11:21:06 PM 31.2903 -104.7714 102° East 450 518 38,600 1,122 Climbing Albuquerque Center
Mon 11:22:07 PM 31.2636 -104.6239 102° East 459 528 39,600 1,033 Climbing Albuquerque Center
Mon 11:23:08 PM 31.2356 -104.4728 102° East 470 541 40,700 689 Climbing Albuquerque Center
Mon 11:24:09 PM 31.2083 -104.3217 102° East 473 544 41,000 102 Climbing Albuquerque Center
Mon 11:26:05 PM 31.1497 -104.0283 103° East 481 554 41,000  Level Houston Center
Mon 11:27:13 PM 31.1225 -103.8650 101° East 480 552 41,000  Level Albuquerque Center
Mon 11:28:14 PM 31.0897 -103.6953 103° East 481 554 41,000  Level Albuquerque Center
Mon 11:29:15 PM 31.0600 -103.5425 103° East 483 556 41,000  Level Albuquerque Center
Mon 11:30:17 PM 31.0306 -103.3900 103° East 485 558 41,000  Level Albuquerque Center
Mon 11:31:18 PM 31.0014 -103.2383 103° East 482 555 41,000  Level Albuquerque Center
Mon 11:32:19 PM 30.9742 -103.0872 102° East 479 551 41,000  Level Albuquerque Center
Mon 11:33:21 PM 30.9425 -102.9375 104° East 479 551 41,000  Level Albuquerque Center
Mon 11:34:22 PM 30.8956 -102.7597 107° East 480 552 41,000  Level Albuquerque Center
Mon 11:35:23 PM 30.8567 -102.6103 107° East 484 557 41,000  Level Albuquerque Center
Mon 11:36:24 PM 30.8186 -102.4633 107° East 483 556 41,000  Level Albuquerque Center
Mon 11:37:26 PM 30.7797 -102.3164 107° East 481 554 41,000  Level Albuquerque Center
Mon 11:38:27 PM 30.7414 -102.1694 107° East 480 552 41,000  Level Albuquerque Center
Mon 11:39:28 PM 30.6972 -102.0253 110° East 479 551 41,000  Level Albuquerque Center
Mon 11:40:30 PM 30.6517 -101.8817 110° East 479 551 41,000  Level Albuquerque Center
Mon 11:41:17 PM 30.6169 -101.7642 109° East 479 551 41,000  Level Houston Center
Mon 11:42:17 PM 30.5711 -101.6208 110° East 476 548 41,000  Level Houston Center
Mon 11:43:18 PM 30.5242 -101.4678 110° East 477 549 41,000  Level Houston Center
Mon 11:44:19 PM 30.4786 -101.3225 110° East 480 552 41,000  Level Houston Center
Mon 11:45:20 PM 30.4325 -101.1778 110° East 480 552 41,000  Level Houston Center
Mon 11:46:20 PM 30.3842 -101.0339 111° Southeast 480 552 41,000  Level Houston Center
Mon 11:47:21 PM 30.3372 -100.8886 110° East 480 552 41,000 -246 Level Houston Center
Mon 11:48:22 PM 30.2917 -100.7433 110° East 481 554 40,500 -942 Descending Houston Center
Mon 11:49:22 PM 30.2464 -100.6025 110° East 467 537 39,100 -2,231 Descending Houston Center
Mon 11:50:23 PM 30.1931 -100.4367 110° East 459 528 36,000 -2,607 Descending Houston Center
Mon 11:51:24 PM 30.1569 -100.3242 110° East 461 531 33,800 -2,231 Descending Houston Center
Mon 11:52:24 PM 30.1128 -100.1833 110° East 450 518 31,500 -2,281 Descending Houston Center
Mon 11:53:25 PM 30.0681 -100.0522 111° Southeast 434 499 29,200 -2,182 Descending Houston Center
Mon 11:54:25 PM 30.0267 -99.9275 111° Southeast 418 481 27,100 -1,983 Descending Houston Center
Mon 11:55:26 PM 29.9525 -99.8356 133° Southeast 400 460 25,200 -1,820 Descending Houston Center
Mon 11:56:27 PM 29.8700 -99.7597 141° Southeast 382 440 23,400 -1,884 Descending Houston Center
Mon 11:57:27 PM 29.7872 -99.6822 141° Southeast 381 438 21,400 -2,083 Descending Houston Center
Mon 11:58:28 PM 29.7086 -99.6078 141° Southeast 369 425 19,200 -2,327 Descending Houston Center
Mon 11:59:05 PM 29.6394 -99.5550 146° Southeast 386 444 17,600 -1,900 Descending Houston Center
Mon 11:59:28 PM 29.6244 -99.5375 135° Southeast 369 425 17,300 -2,000 Descending Houston Center
Mon 11:59:47 PM 29.5831 -99.5061 147° Southeast 363 418 16,200 -2,361 Descending Houston Center
Tue 12:00:29 AM 29.5314 -99.4567 140° Southeast 351 404 14,900 -1,967 Descending Houston Center
Tue 12:00:48 AM 29.5253 -99.4211 101° East 340 391 14,200 -1,600 Descending Houston Center
Tue 12:01:29 AM 29.5350 -99.3514 81° East 320 368 13,300 -1,475 Descending Houston Center
Tue 12:01:49 AM 29.5422 -99.3233 74° East 310 357 12,700 -1,475 Descending Houston Center
Tue 12:02:30 AM 29.5586 -99.2564 74° East 309 356 11,800 -1,500 Descending Houston Center
Tue 12:02:49 AM 29.5656 -99.2294 73° East 305 351 11,200 -1,500 Descending Houston Center
Tue 12:03:30 AM 29.5817 -99.1633 74° East 304 350 10,300 -1,377 Descending Houston Center
Tue 12:03:50 AM 29.5869 -99.1358 78° East 303 349 9,800 -1,082 Descending Houston Center
Tue 12:04:31 AM 29.6050 -99.0711 72° East 300 345 9,200 -1,000 Descending Houston Center
Tue 12:04:50 AM 29.6061 -99.0425 87° East 299 344 8,800 -1,200 Descending Houston Center
Tue 12:05:31 AM 29.6161 -98.9789 80° East 289 333 8,000 -1,279 Descending Houston Center
Tue 12:05:51 AM 29.6214 -98.9542 76° East 288 331 7,500 -1,279 Descending Houston Center
Tue 12:06:32 AM 29.6328 -98.8917 78° East 281 323 6,700 -1,307 Descending Houston Center
Tue 12:07:32 AM 29.6483 -98.8089 78° East 266 306 5,300 -1,339 Descending Houston Center
Tue 12:08:33 AM 29.6636 -98.7264 78° East 264 304 4,000 -1,140 Descending Houston Center
Tue 12:09:33 AM 29.6608 -98.6547 93° East 245 282 3,000 -496 Descending Houston Center
Tue 12:10:34 AM 29.6278 -98.5942 122° Southeast 212 244 3,000 -298 Level Houston Center
Tue 12:11:34 AM 29.5953 -98.5517 131° Southeast 171 197 2,400 -720 Descending Houston Center
Tue 12:11:49 AM 29.5911 -98.5469 135° Southeast 135 155 2,100 -689 Descending Houston Center
Tue 12:12:35 AM 29.5711 -98.5208 131° Southeast 137 158 1,700 -566 Descending Houston Center
Tue 12:13:35 AM 29.5492 -98.4911 130° Southeast 125 144 1,100 -600 Descending Houston Center
Tue 12:15:00 AM 29.5333 -98.4667 123° Southeast  Level FlightAware Approximate
Tue 12:22:00 AM 29.5340 -98.4691 123° Southeast  Level Estimated
Tue 12:23:00 AM 29.5333 -98.4667 123° Southeast  Level FlightAware Approximate

Login

Don't have an account? Register now (free) for customized features, flight alerts, and more!